Frank T. Stegbauer — WDE5944 — position and weather

sailwx.info

Track history (hours):
 
Tides and Currents Weather Stations Pressure Air Temp Water Temp Dewpoint Dewpoint Depression Visibility Wind Speed Wind Dir Waves Ship Positions

Frank T. Stegbauer

Owner: SOUTHERN TOWING COMPANY LLC., Memphis, TN. More information available from US FCC via Universal Licensing System and Coast Guard Vessel Documentation Center.

Last reported at 2017-Mar-31 05:53 UTC. Time now 2017-Apr-25 06:32 UTC.
Position N 32°47' W 091°09'.
Warning: this ship's position is 25 days out of date.

Length 35 m; draft 3 m.

Type: Tug. MMSI: 367373640.

Date/timePositionNaut miles runAvg speedWind from/ knotsBaromVisibWave heightAir tempDewpointWater temp
2017-Mar-31 05:53N 32°47' W 091°09'2 5.5
2017-Mar-31 05:28N 32°44' W 091°09'2 4.7
2017-Mar-31 04:59N 32°44' W 091°06'5 3.4
2017-Mar-31 03:33N 32°40' W 091°08'5 4.8
2017-Mar-31 02:33N 32°35' W 091°08'5 4.8
2017-Mar-31 01:33N 32°30' W 091°07'4 4.4
2017-Mar-31 00:33N 32°27' W 091°04'5 4.8
2017-Mar-30 23:33N 32°24' W 090°60'3 3.3
2017-Mar-30 22:33N 32°21' W 090°57'3 3.4
2017-Mar-30 21:33N 32°18' W 090°56'6 5.7
2017-Mar-30 20:33N 32°13' W 090°59'6 5.6
2017-Mar-30 19:33N 32°07' W 091°01'5 4.8
2017-Mar-30 18:33N 32°07' W 091°06'  
2017-Mar-22 14:33N 32°06' W 091°06'7 7.1
2017-Mar-22 13:32N 32°11' W 090°60'1010.3
2017-Mar-22 12:33N 32°20' W 090°54'8 7.5
2017-Mar-22 11:33N 32°25' W 091°00'9 8.4
2017-Mar-22 10:27N 32°33' W 091°06'  
Track history (hours):
 
Tides and Currents Weather Stations Pressure Air Temp Water Temp Dewpoint Dewpoint Depression Visibility Wind Speed Wind Dir Waves Ship Positions

Frank T. Stegbauer

Owner: SOUTHERN TOWING COMPANY LLC., Memphis, TN. More information available from US FCC via Universal Licensing System and Coast Guard Vessel Documentation Center.

Last reported at 2017-Mar-31 05:53 UTC. Time now 2017-Apr-25 06:32 UTC.
Position N 32°47' W 091°09'.
Warning: this ship's position is 25 days out of date.

Length 35 m; draft 3 m.

Type: Tug. MMSI: 367373640.

Date/timePositionNaut miles runAvg speedWind from/ knotsBaromVisibWave heightAir tempDewpointWater temp
2017-Mar-31 05:53N 32°47' W 091°09'2 5.5
2017-Mar-31 05:28N 32°44' W 091°09'2 4.7
2017-Mar-31 04:59N 32°44' W 091°06'5 3.4
2017-Mar-31 03:33N 32°40' W 091°08'5 4.8
2017-Mar-31 02:33N 32°35' W 091°08'5 4.8
2017-Mar-31 01:33N 32°30' W 091°07'4 4.4
2017-Mar-31 00:33N 32°27' W 091°04'5 4.8
2017-Mar-30 23:33N 32°24' W 090°60'3 3.3
2017-Mar-30 22:33N 32°21' W 090°57'3 3.4
2017-Mar-30 21:33N 32°18' W 090°56'6 5.7
2017-Mar-30 20:33N 32°13' W 090°59'6 5.6
2017-Mar-30 19:33N 32°07' W 091°01'5 4.8
2017-Mar-30 18:33N 32°07' W 091°06'  
2017-Mar-22 14:33N 32°06' W 091°06'7 7.1
2017-Mar-22 13:32N 32°11' W 090°60'1010.3
2017-Mar-22 12:33N 32°20' W 090°54'8 7.5
2017-Mar-22 11:33N 32°25' W 091°00'9 8.4
2017-Mar-22 10:27N 32°33' W 091°06'  

Dump ship's entire track history